| time (UTC) | temp F | wind direction | speed MPH | gust MPH | rain 1hr in | rain 24hr in | rain mn in | humidity % | barometer mb |
| 20260504034542 | 56 | 339 | 0.0 | 2.0 | 0.00 | 0.00 | 0.00 | 78 | 1019.2 |
| 20260504033033 | 56 | 0 | 0.0 | 0.0 | 0.00 | 0.00 | 0.00 | 78 | 1019.2 |
| 20260504031535 | 56 | 0 | 0.0 | 2.0 | 0.00 | 0.00 | 0.00 | 76 | 1019.3 |
| 20260504030039 | 57 | 0 | 0.0 | 0.0 | 0.00 | 0.00 | 0.00 | 77 | 1019.2 |
| 20260504024530 | 57 | 0 | 0.0 | 0.0 | 0.00 | 0.00 | 0.00 | 76 | 1019.1 |
| 20260504023034 | 58 | 0 | 0.0 | 0.0 | 0.00 | 0.00 | 0.00 | 75 | 1019.0 |
| 20260504021534 | 59 | 0 | 0.0 | 1.0 | 0.00 | 0.00 | 0.00 | 74 | 1019.0 |
| 20260504020038 | 59 | 0 | 0.0 | 2.0 | 0.00 | 0.00 | 0.00 | 70 | 1018.7 |
| 20260504014534 | 60 | 0 | 0.0 | 1.0 | 0.00 | 0.00 | 0.00 | 66 | 1018.6 |
| 20260504013032 | 61 | 0 | 0.0 | 0.0 | 0.00 | 0.00 | 0.00 | 66 | 1018.5 |
| 20260504011533 | 62 | 0 | 0.0 | 0.0 | 0.00 | 0.00 | 0.00 | 63 | 1018.4 |
| 20260504010040 | 64 | 0 | 0.0 | 0.0 | 0.00 | 0.00 | 0.00 | 58 | 1018.3 |
| 20260504004534 | 66 | 0 | 0.0 | 1.0 | 0.00 | 0.00 | 0.00 | 56 | 1017.9 |
| 20260504003032 | 68 | 0 | 0.0 | 1.0 | 0.00 | 0.00 | 0.00 | 54 | 1017.8 |
| 20260504001535 | 70 | 0 | 0.0 | 2.0 | 0.00 | 0.00 | 0.00 | 50 | 1017.7 |
| 20260504000034 | 72 | 0 | 1.0 | 5.0 | 0.00 | 0.00 | 0.00 | 44 | 1017.8 |
| 20260503234535 | 74 | 344 | 2.0 | 5.0 | 0.00 | 0.00 | 0.00 | 39 | 1017.8 |
| 20260503233035 | 75 | 9 | 0.0 | 4.0 | 0.00 | 0.00 | 0.00 | 38 | 1017.7 |
| 20260503231545 | 75 | 325 | 1.0 | 5.0 | 0.00 | 0.00 | 0.00 | 35 | 1017.9 |
| 20260503230034 | 75 | 309 | 1.0 | 7.0 | 0.00 | 0.00 | 0.00 | 35 | 1017.8 |
| 20260503224534 | 76 | 0 | 1.0 | 5.0 | 0.00 | 0.00 | 0.00 | 35 | 1018.0 |
| 20260503223035 | 76 | 0 | 2.0 | 9.0 | 0.00 | 0.00 | 0.00 | 34 | 1018.0 |
| 20260503221535 | 76 | 21 | 4.0 | 10.0 | 0.00 | 0.00 | 0.00 | 34 | 1018.0 |
| 20260503220038 | 76 | 351 | 3.0 | 9.0 | 0.00 | 0.00 | 0.00 | 33 | 1018.2 |
| 20260503214542 | 76 | 19 | 4.0 | 12.0 | 0.00 | 0.00 | 0.00 | 33 | 1018.2 |
| 20260503213050 | 76 | 103 | 2.0 | 9.0 | 0.00 | 0.00 | 0.00 | 31 | 1018.3 |
| 20260503211549 | 76 | 350 | 2.0 | 10.0 | 0.00 | 0.00 | 0.00 | 33 | 1018.5 |
| 20260503210035 | 76 | 0 | 3.0 | 8.0 | 0.00 | 0.00 | 0.00 | 32 | 1018.6 |
| 20260503204550 | 75 | 321 | 4.0 | 11.0 | 0.00 | 0.00 | 0.00 | 32 | 1018.7 |
| 20260503203035 | 76 | 0 | 4.0 | 11.0 | 0.00 | 0.00 | 0.00 | 33 | 1019.1 |
| 20260503201532 | 76 | 298 | 3.0 | 10.0 | 0.00 | 0.00 | 0.00 | 33 | 1019.4 |
| 20260503200034 | 75 | 319 | 2.0 | 9.0 | 0.00 | 0.00 | 0.00 | 33 | 1019.6 |
| 20260503194534 | 75 | 355 | 4.0 | 14.0 | 0.00 | 0.00 | 0.00 | 31 | 1020.0 |
| 20260503193034 | 75 | 298 | 2.0 | 15.0 | 0.00 | 0.00 | 0.00 | 32 | 1020.2 |
| 20260503191533 | 75 | 36 | 4.0 | 10.0 | 0.00 | 0.00 | 0.00 | 33 | 1020.2 |
| 20260503190033 | 74 | 331 | 5.0 | 12.0 | 0.00 | 0.00 | 0.00 | 32 | 1020.6 |
| 20260503184534 | 74 | 205 | 2.0 | 13.0 | 0.00 | 0.00 | 0.00 | 36 | 1020.8 |
| 20260503183041 | 74 | 277 | 2.0 | 10.0 | 0.00 | 0.00 | 0.00 | 32 | 1020.9 |
| 20260503181534 | 74 | 333 | 4.0 | 13.0 | 0.00 | 0.00 | 0.00 | 33 | 1021.2 |
| 20260503180035 | 74 | 108 | 5.0 | 10.0 | 0.00 | 0.00 | 0.00 | 32 | 1021.5 |
| 20260503174544 | 74 | 5 | 3.0 | 14.0 | 0.00 | 0.00 | 0.00 | 34 | 1021.5 |
| 20260503173032 | 73 | 327 | 3.0 | 9.0 | 0.00 | 0.00 | 0.00 | 34 | 1021.7 |
| 20260503171534 | 73 | 35 | 3.0 | 12.0 | 0.00 | 0.00 | 0.00 | 34 | 1021.9 |
| 20260503081545 | 48 | 0 | 0.0 | 0.0 | 0.00 | 0.10 | 0.00 | 85 | 1019.8 |
| 20260503071554 | 50 | 0 | 0.0 | 0.0 | 0.00 | 0.19 | 0.00 | 79 | 1019.1 |
| 20260503054550 | 55 | 0 | 0.0 | 2.0 | 0.00 | 0.27 | 0.00 | 66 | 1019.0 |
| 20260503053030 | 57 | 0 | 0.0 | 2.0 | 0.00 | 0.27 | 0.00 | 62 | 1019.0 |
| 20260503051543 | 57 | 22 | 1.0 | 4.0 | 0.00 | 0.27 | 0.00 | 59 | 1018.9 |
| 20260503050034 | 57 | 5 | 1.0 | 4.0 | 0.00 | 0.27 | 0.00 | 61 | 1018.8 |
| 20260503044535 | 57 | 360 | 1.0 | 3.0 | 0.00 | 0.33 | 0.27 | 59 | 1018.9 |
| 20260503043034 | 58 | 31 | 2.0 | 5.0 | 0.00 | 0.33 | 0.27 | 54 | 1018.9 |
| 20260503041534 | 60 | 360 | 1.0 | 3.0 | 0.00 | 0.33 | 0.27 | 52 | 1018.9 |
| 20260503040034 | 60 | 5 | 2.0 | 6.0 | 0.00 | 0.33 | 0.27 | 51 | 1018.9 |